sensor_id;sensor_type;location;lat;lon;timestamp;temperature;humidity
59505;DHT22;45321;53.200;5.814;2023-03-23T00:00:07;10.50;95.30
59505;DHT22;45321;53.200;5.814;2023-03-23T00:02:34;10.50;95.20
59505;DHT22;45321;53.200;5.814;2023-03-23T00:05:05;10.40;95.30
59505;DHT22;45321;53.200;5.814;2023-03-23T00:07:33;10.50;95.30
59505;DHT22;45321;53.200;5.814;2023-03-23T00:09:59;10.50;95.30
59505;DHT22;45321;53.200;5.814;2023-03-23T00:12:29;10.50;95.30
59505;DHT22;45321;53.200;5.814;2023-03-23T00:15:07;10.50;95.40
59505;DHT22;45321;53.200;5.814;2023-03-23T00:17:34;10.60;95.40
59505;DHT22;45321;53.200;5.814;2023-03-23T00:20:01;10.60;95.30
59505;DHT22;45321;53.200;5.814;2023-03-23T00:22:28;10.60;95.40
59505;DHT22;45321;53.200;5.814;2023-03-23T00:24:54;10.60;95.40
59505;DHT22;45321;53.200;5.814;2023-03-23T00:27:20;10.60;95.40
59505;DHT22;45321;53.200;5.814;2023-03-23T00:29:51;10.60;95.40
59505;DHT22;45321;53.200;5.814;2023-03-23T00:32:21;10.60;95.50
59505;DHT22;45321;53.200;5.814;2023-03-23T00:34:55;10.60;95.50
59505;DHT22;45321;53.200;5.814;2023-03-23T00:37:21;10.70;95.50
59505;DHT22;45321;53.200;5.814;2023-03-23T00:39:46;10.70;95.50
59505;DHT22;45321;53.200;5.814;2023-03-23T00:42:15;10.70;95.40
59505;DHT22;45321;53.200;5.814;2023-03-23T00:44:42;10.70;95.40
59505;DHT22;45321;53.200;5.814;2023-03-23T00:47:10;10.70;95.40
59505;DHT22;45321;53.200;5.814;2023-03-23T00:49:36;10.70;95.40
59505;DHT22;45321;53.200;5.814;2023-03-23T00:52:04;10.70;95.30
59505;DHT22;45321;53.200;5.814;2023-03-23T00:54:30;10.70;95.20
59505;DHT22;45321;53.200;5.814;2023-03-23T00:56:56;10.70;95.10
59505;DHT22;45321;53.200;5.814;2023-03-23T00:59:22;10.70;95.00
59505;DHT22;45321;53.200;5.814;2023-03-23T01:01:48;10.60;94.80
59505;DHT22;45321;53.200;5.814;2023-03-23T01:04:15;10.60;94.80
59505;DHT22;45321;53.200;5.814;2023-03-23T01:06:42;10.60;94.50
59505;DHT22;45321;53.200;5.814;2023-03-23T01:09:14;10.60;94.40
59505;DHT22;45321;53.200;5.814;2023-03-23T01:11:44;10.60;94.40
59505;DHT22;45321;53.200;5.814;2023-03-23T01:14:11;10.60;94.30
59505;DHT22;45321;53.200;5.814;2023-03-23T01:16:37;10.70;94.20
59505;DHT22;45321;53.200;5.814;2023-03-23T01:19:03;10.70;94.20
59505;DHT22;45321;53.200;5.814;2023-03-23T01:21:29;10.70;94.20
59505;DHT22;45321;53.200;5.814;2023-03-23T01:23:55;10.80;94.20
59505;DHT22;45321;53.200;5.814;2023-03-23T01:26:24;10.80;94.20
59505;DHT22;45321;53.200;5.814;2023-03-23T01:28:50;10.80;94.20
59505;DHT22;45321;53.200;5.814;2023-03-23T01:31:19;10.80;94.20
59505;DHT22;45321;53.200;5.814;2023-03-23T01:33:45;10.80;94.20
59505;DHT22;45321;53.200;5.814;2023-03-23T01:36:14;10.80;94.20
59505;DHT22;45321;53.200;5.814;2023-03-23T01:38:42;10.90;94.10
59505;DHT22;45321;53.200;5.814;2023-03-23T01:41:07;10.80;94.00
59505;DHT22;45321;53.200;5.814;2023-03-23T01:43:33;10.90;93.90
59505;DHT22;45321;53.200;5.814;2023-03-23T01:45:59;10.90;93.90
59505;DHT22;45321;53.200;5.814;2023-03-23T01:48:32;10.90;93.90
59505;DHT22;45321;53.200;5.814;2023-03-23T01:51:12;10.90;93.90
59505;DHT22;45321;53.200;5.814;2023-03-23T01:53:44;10.90;93.80
59505;DHT22;45321;53.200;5.814;2023-03-23T01:56:12;11.00;93.70
59505;DHT22;45321;53.200;5.814;2023-03-23T01:58:40;10.90;93.70
59505;DHT22;45321;53.200;5.814;2023-03-23T02:01:10;10.90;93.70
59505;DHT22;45321;53.200;5.814;2023-03-23T02:03:39;10.90;93.60
59505;DHT22;45321;53.200;5.814;2023-03-23T02:06:06;11.00;93.50
59505;DHT22;45321;53.200;5.814;2023-03-23T02:08:33;11.10;93.50
59505;DHT22;45321;53.200;5.814;2023-03-23T02:10:59;11.00;93.30
59505;DHT22;45321;53.200;5.814;2023-03-23T02:13:26;11.00;93.20
59505;DHT22;45321;53.200;5.814;2023-03-23T02:33:08;11.20;92.50
59505;DHT22;45321;53.200;5.814;2023-03-23T02:40:55;11.20;92.10
59505;DHT22;45321;53.200;5.814;2023-03-23T02:43:24;11.20;91.90
59505;DHT22;45321;53.200;5.814;2023-03-23T02:45:50;11.30;91.80
59505;DHT22;45321;53.200;5.814;2023-03-23T02:48:20;11.30;91.70
59505;DHT22;45321;53.200;5.814;2023-03-23T02:50:50;11.20;91.70
59505;DHT22;45321;53.200;5.814;2023-03-23T02:53:20;11.20;91.60
59505;DHT22;45321;53.200;5.814;2023-03-23T02:55:47;11.20;91.60
59505;DHT22;45321;53.200;5.814;2023-03-23T02:58:14;11.20;91.60
59505;DHT22;45321;53.200;5.814;2023-03-23T03:00:40;11.20;91.50
59505;DHT22;45321;53.200;5.814;2023-03-23T03:03:12;11.20;91.40
59505;DHT22;45321;53.200;5.814;2023-03-23T03:08:43;11.20;91.50
59505;DHT22;45321;53.200;5.814;2023-03-23T03:11:16;11.10;91.50
59505;DHT22;45321;53.200;5.814;2023-03-23T03:13:59;11.20;91.50
59505;DHT22;45321;53.200;5.814;2023-03-23T03:16:47;11.20;91.50
59505;DHT22;45321;53.200;5.814;2023-03-23T03:21:46;11.20;91.40
59505;DHT22;45321;53.200;5.814;2023-03-23T03:24:16;11.20;91.50
59505;DHT22;45321;53.200;5.814;2023-03-23T03:26:47;11.10;91.60
59505;DHT22;45321;53.200;5.814;2023-03-23T03:29:20;11.00;91.70
59505;DHT22;45321;53.200;5.814;2023-03-23T03:31:47;10.90;91.90
59505;DHT22;45321;53.200;5.814;2023-03-23T03:34:15;10.80;92.10
59505;DHT22;45321;53.200;5.814;2023-03-23T03:36:46;10.80;92.30
59505;DHT22;45321;53.200;5.814;2023-03-23T03:39:14;10.70;92.50
59505;DHT22;45321;53.200;5.814;2023-03-23T03:41:43;10.60;92.70
59505;DHT22;45321;53.200;5.814;2023-03-23T03:44:10;10.50;92.90
59505;DHT22;45321;53.200;5.814;2023-03-23T03:46:36;10.50;93.10
59505;DHT22;45321;53.200;5.814;2023-03-23T03:49:04;10.50;93.20
59505;DHT22;45321;53.200;5.814;2023-03-23T03:51:31;10.40;93.40
59505;DHT22;45321;53.200;5.814;2023-03-23T03:53:57;10.50;93.50
59505;DHT22;45321;53.200;5.814;2023-03-23T03:56:24;10.50;93.60
59505;DHT22;45321;53.200;5.814;2023-03-23T03:58:50;10.40;93.60
59505;DHT22;45321;53.200;5.814;2023-03-23T04:01:17;10.50;93.60
59505;DHT22;45321;53.200;5.814;2023-03-23T04:03:44;10.40;93.50
59505;DHT22;45321;53.200;5.814;2023-03-23T04:06:10;10.50;93.50
59505;DHT22;45321;53.200;5.814;2023-03-23T04:08:39;10.50;93.40
59505;DHT22;45321;53.200;5.814;2023-03-23T04:11:07;10.50;93.30
59505;DHT22;45321;53.200;5.814;2023-03-23T04:13:33;10.50;93.30
59505;DHT22;45321;53.200;5.814;2023-03-23T04:15:59;10.50;93.30
59505;DHT22;45321;53.200;5.814;2023-03-23T04:18:26;10.50;93.20
59505;DHT22;45321;53.200;5.814;2023-03-23T04:20:52;10.50;93.10
59505;DHT22;45321;53.200;5.814;2023-03-23T04:23:19;10.50;92.90
59505;DHT22;45321;53.200;5.814;2023-03-23T04:25:47;10.50;92.50
59505;DHT22;45321;53.200;5.814;2023-03-23T04:28:15;10.60;92.30
59505;DHT22;45321;53.200;5.814;2023-03-23T04:30:42;10.50;92.20
59505;DHT22;45321;53.200;5.814;2023-03-23T04:33:09;10.50;92.00
59505;DHT22;45321;53.200;5.814;2023-03-23T04:35:41;10.50;92.00
59505;DHT22;45321;53.200;5.814;2023-03-23T04:38:08;10.50;91.90
59505;DHT22;45321;53.200;5.814;2023-03-23T04:40:39;10.50;91.80
59505;DHT22;45321;53.200;5.814;2023-03-23T04:43:05;10.50;91.70
59505;DHT22;45321;53.200;5.814;2023-03-23T04:45:33;10.40;91.80
59505;DHT22;45321;53.200;5.814;2023-03-23T04:47:59;10.50;91.80
59505;DHT22;45321;53.200;5.814;2023-03-23T04:50:28;10.40;91.70
59505;DHT22;45321;53.200;5.814;2023-03-23T04:52:57;10.50;91.60
59505;DHT22;45321;53.200;5.814;2023-03-23T04:55:24;10.40;91.50
59505;DHT22;45321;53.200;5.814;2023-03-23T04:57:51;10.40;91.40
59505;DHT22;45321;53.200;5.814;2023-03-23T05:00:18;10.40;91.30
59505;DHT22;45321;53.200;5.814;2023-03-23T05:02:45;10.40;91.30
59505;DHT22;45321;53.200;5.814;2023-03-23T05:05:14;10.30;91.30
59505;DHT22;45321;53.200;5.814;2023-03-23T05:07:40;10.30;91.00
59505;DHT22;45321;53.200;5.814;2023-03-23T05:10:08;10.40;91.00
59505;DHT22;45321;53.200;5.814;2023-03-23T05:12:34;10.40;91.00
59505;DHT22;45321;53.200;5.814;2023-03-23T05:15:00;10.40;90.90
59505;DHT22;45321;53.200;5.814;2023-03-23T05:17:26;10.40;90.80
59505;DHT22;45321;53.200;5.814;2023-03-23T05:19:52;10.30;90.70
59505;DHT22;45321;53.200;5.814;2023-03-23T05:22:19;10.30;90.70
59505;DHT22;45321;53.200;5.814;2023-03-23T05:24:47;10.30;90.70
59505;DHT22;45321;53.200;5.814;2023-03-23T05:27:13;10.30;90.60
59505;DHT22;45321;53.200;5.814;2023-03-23T05:29:40;10.30;90.60
59505;DHT22;45321;53.200;5.814;2023-03-23T05:32:09;10.30;90.50
59505;DHT22;45321;53.200;5.814;2023-03-23T05:34:35;10.20;90.50
59505;DHT22;45321;53.200;5.814;2023-03-23T05:37:02;10.30;90.20
59505;DHT22;45321;53.200;5.814;2023-03-23T05:39:29;10.20;90.00
59505;DHT22;45321;53.200;5.814;2023-03-23T05:41:55;10.30;89.80
59505;DHT22;45321;53.200;5.814;2023-03-23T05:44:21;10.30;89.80
59505;DHT22;45321;53.200;5.814;2023-03-23T05:46:47;10.30;89.70
59505;DHT22;45321;53.200;5.814;2023-03-23T05:49:15;10.30;89.70
59505;DHT22;45321;53.200;5.814;2023-03-23T05:51:44;10.30;89.80
59505;DHT22;45321;53.200;5.814;2023-03-23T05:54:13;10.30;90.00
59505;DHT22;45321;53.200;5.814;2023-03-23T05:56:40;10.30;89.80
59505;DHT22;45321;53.200;5.814;2023-03-23T05:59:06;10.20;89.40
59505;DHT22;45321;53.200;5.814;2023-03-23T06:01:32;10.00;89.10
59505;DHT22;45321;53.200;5.814;2023-03-23T06:03:58;10.00;89.00
59505;DHT22;45321;53.200;5.814;2023-03-23T06:06:29;9.90;87.90
59505;DHT22;45321;53.200;5.814;2023-03-23T06:08:57;9.90;86.70
59505;DHT22;45321;53.200;5.814;2023-03-23T06:11:24;9.80;86.40
59505;DHT22;45321;53.200;5.814;2023-03-23T06:13:51;9.80;85.10
59505;DHT22;45321;53.200;5.814;2023-03-23T06:16:17;9.80;85.50
59505;DHT22;45321;53.200;5.814;2023-03-23T06:18:42;9.80;85.20
59505;DHT22;45321;53.200;5.814;2023-03-23T06:21:10;9.80;85.50
59505;DHT22;45321;53.200;5.814;2023-03-23T06:23:36;9.70;85.70
59505;DHT22;45321;53.200;5.814;2023-03-23T06:26:05;9.70;86.10
59505;DHT22;45321;53.200;5.814;2023-03-23T06:28:32;9.60;86.50
59505;DHT22;45321;53.200;5.814;2023-03-23T06:31:05;9.60;86.70
59505;DHT22;45321;53.200;5.814;2023-03-23T06:33:36;9.60;86.70
59505;DHT22;45321;53.200;5.814;2023-03-23T06:36:03;9.60;87.00
59505;DHT22;45321;53.200;5.814;2023-03-23T06:38:28;9.70;87.30
59505;DHT22;45321;53.200;5.814;2023-03-23T06:40:55;9.70;87.40
59505;DHT22;45321;53.200;5.814;2023-03-23T06:43:22;9.70;87.60
59505;DHT22;45321;53.200;5.814;2023-03-23T06:45:48;9.70;87.80
59505;DHT22;45321;53.200;5.814;2023-03-23T06:48:14;9.70;88.00
59505;DHT22;45321;53.200;5.814;2023-03-23T06:50:46;9.80;88.20
59505;DHT22;45321;53.200;5.814;2023-03-23T06:53:12;9.70;88.50
59505;DHT22;45321;53.200;5.814;2023-03-23T06:55:38;9.70;88.80
59505;DHT22;45321;53.200;5.814;2023-03-23T06:58:05;9.80;89.00
59505;DHT22;45321;53.200;5.814;2023-03-23T07:00:32;9.80;89.30
59505;DHT22;45321;53.200;5.814;2023-03-23T07:02:58;9.90;89.40
59505;DHT22;45321;53.200;5.814;2023-03-23T07:05:24;9.90;89.60
59505;DHT22;45321;53.200;5.814;2023-03-23T07:07:50;10.00;89.60
59505;DHT22;45321;53.200;5.814;2023-03-23T07:10:16;10.10;89.70
59505;DHT22;45321;53.200;5.814;2023-03-23T07:12:42;10.20;89.80
59505;DHT22;45321;53.200;5.814;2023-03-23T07:15:09;10.10;89.80
59505;DHT22;45321;53.200;5.814;2023-03-23T07:17:37;10.20;89.80
59505;DHT22;45321;53.200;5.814;2023-03-23T07:20:03;10.30;89.80
59505;DHT22;45321;53.200;5.814;2023-03-23T07:22:30;10.30;89.70
59505;DHT22;45321;53.200;5.814;2023-03-23T07:24:56;10.40;89.70
59505;DHT22;45321;53.200;5.814;2023-03-23T07:27:22;10.50;89.70
59505;DHT22;45321;53.200;5.814;2023-03-23T07:29:47;10.60;89.50
59505;DHT22;45321;53.200;5.814;2023-03-23T07:32:13;10.70;89.60
59505;DHT22;45321;53.200;5.814;2023-03-23T07:34:40;10.80;89.30
59505;DHT22;45321;53.200;5.814;2023-03-23T07:37:06;10.80;89.30
59505;DHT22;45321;53.200;5.814;2023-03-23T07:39:33;10.90;88.80
59505;DHT22;45321;53.200;5.814;2023-03-23T07:41:59;11.00;88.60
59505;DHT22;45321;53.200;5.814;2023-03-23T07:44:25;11.00;88.20
59505;DHT22;45321;53.200;5.814;2023-03-23T07:46:51;11.00;88.00
59505;DHT22;45321;53.200;5.814;2023-03-23T07:49:17;11.10;87.80
59505;DHT22;45321;53.200;5.814;2023-03-23T07:51:44;11.20;87.80
59505;DHT22;45321;53.200;5.814;2023-03-23T07:54:10;11.20;87.40
59505;DHT22;45321;53.200;5.814;2023-03-23T07:56:36;11.20;87.10
59505;DHT22;45321;53.200;5.814;2023-03-23T07:59:05;11.20;87.10
59505;DHT22;45321;53.200;5.814;2023-03-23T08:01:32;11.30;87.10
59505;DHT22;45321;53.200;5.814;2023-03-23T08:03:58;11.30;87.00
59505;DHT22;45321;53.200;5.814;2023-03-23T08:06:25;11.30;86.00
59505;DHT22;45321;53.200;5.814;2023-03-23T08:08:52;11.30;85.80
59505;DHT22;45321;53.200;5.814;2023-03-23T08:11:18;11.30;86.00
59505;DHT22;45321;53.200;5.814;2023-03-23T08:13:45;11.30;85.80
59505;DHT22;45321;53.200;5.814;2023-03-23T08:16:11;11.20;85.40
59505;DHT22;45321;53.200;5.814;2023-03-23T08:18:37;11.20;85.40
59505;DHT22;45321;53.200;5.814;2023-03-23T08:21:05;11.20;85.50
59505;DHT22;45321;53.200;5.814;2023-03-23T08:23:32;11.30;85.90
59505;DHT22;45321;53.200;5.814;2023-03-23T08:25:59;11.30;85.40
59505;DHT22;45321;53.200;5.814;2023-03-23T08:28:26;11.50;84.70
59505;DHT22;45321;53.200;5.814;2023-03-23T08:30:52;11.60;84.60
59505;DHT22;45321;53.200;5.814;2023-03-23T08:33:18;11.70;84.40
59505;DHT22;45321;53.200;5.814;2023-03-23T08:35:44;11.80;84.00
59505;DHT22;45321;53.200;5.814;2023-03-23T08:38:11;11.80;83.40
59505;DHT22;45321;53.200;5.814;2023-03-23T08:40:37;11.90;83.80
59505;DHT22;45321;53.200;5.814;2023-03-23T08:43:04;12.00;82.90
59505;DHT22;45321;53.200;5.814;2023-03-23T08:45:29;12.20;81.90
59505;DHT22;45321;53.200;5.814;2023-03-23T08:47:55;12.20;81.90
59505;DHT22;45321;53.200;5.814;2023-03-23T08:50:27;12.30;81.80
59505;DHT22;45321;53.200;5.814;2023-03-23T08:52:53;12.30;81.10
59505;DHT22;45321;53.200;5.814;2023-03-23T08:55:21;12.30;80.90
59505;DHT22;45321;53.200;5.814;2023-03-23T08:57:47;12.30;80.70
59505;DHT22;45321;53.200;5.814;2023-03-23T09:00:18;12.30;80.80
59505;DHT22;45321;53.200;5.814;2023-03-23T09:02:50;12.30;80.40
59505;DHT22;45321;53.200;5.814;2023-03-23T09:05:18;12.30;80.10
59505;DHT22;45321;53.200;5.814;2023-03-23T09:07:46;12.40;80.60
59505;DHT22;45321;53.200;5.814;2023-03-23T09:10:13;12.40;80.80
59505;DHT22;45321;53.200;5.814;2023-03-23T09:12:40;12.50;80.80
59505;DHT22;45321;53.200;5.814;2023-03-23T09:15:08;12.60;80.20
59505;DHT22;45321;53.200;5.814;2023-03-23T09:17:40;12.70;80.20
59505;DHT22;45321;53.200;5.814;2023-03-23T09:20:07;12.80;80.10
59505;DHT22;45321;53.200;5.814;2023-03-23T09:22:42;12.90;79.90
59505;DHT22;45321;53.200;5.814;2023-03-23T09:25:10;12.90;78.70
59505;DHT22;45321;53.200;5.814;2023-03-23T09:27:37;12.90;78.30
59505;DHT22;45321;53.200;5.814;2023-03-23T09:30:10;12.90;78.30
59505;DHT22;45321;53.200;5.814;2023-03-23T09:32:38;13.00;79.20
59505;DHT22;45321;53.200;5.814;2023-03-23T09:35:06;12.90;78.60
59505;DHT22;45321;53.200;5.814;2023-03-23T09:37:38;12.90;77.60
59505;DHT22;45321;53.200;5.814;2023-03-23T09:40:06;12.80;77.70
59505;DHT22;45321;53.200;5.814;2023-03-23T09:42:56;12.80;78.20
59505;DHT22;45321;53.200;5.814;2023-03-23T09:53:50;13.20;75.30
59505;DHT22;45321;53.200;5.814;2023-03-23T09:56:17;13.10;75.90
59505;DHT22;45321;53.200;5.814;2023-03-23T10:01:34;13.10;75.10
59505;DHT22;45321;53.200;5.814;2023-03-23T10:07:03;12.90;74.90
59505;DHT22;45321;53.200;5.814;2023-03-23T10:09:31;13.00;75.00
59505;DHT22;45321;53.200;5.814;2023-03-23T10:12:25;13.10;73.10
59505;DHT22;45321;53.200;5.814;2023-03-23T10:15:15;13.30;74.30
59505;DHT22;45321;53.200;5.814;2023-03-23T10:17:50;13.30;72.20
59505;DHT22;45321;53.200;5.814;2023-03-23T10:29:29;13.60;73.30
59505;DHT22;45321;53.200;5.814;2023-03-23T10:31:43;13.80;73.40
59505;DHT22;45321;53.200;5.814;2023-03-23T10:34:35;14.00;73.60
59505;DHT22;45321;53.200;5.814;2023-03-23T10:37:21;13.80;71.50
59505;DHT22;45321;53.200;5.814;2023-03-23T10:39:56;13.80;72.40
59505;DHT22;45321;53.200;5.814;2023-03-23T10:42:25;13.80;72.40
59505;DHT22;45321;53.200;5.814;2023-03-23T10:44:52;13.80;72.00
59505;DHT22;45321;53.200;5.814;2023-03-23T10:47:18;13.60;72.30
59505;DHT22;45321;53.200;5.814;2023-03-23T10:49:56;13.50;73.40
59505;DHT22;45321;53.200;5.814;2023-03-23T10:52:35;13.30;73.70
59505;DHT22;45321;53.200;5.814;2023-03-23T10:55:03;13.30;74.40
59505;DHT22;45321;53.200;5.814;2023-03-23T10:57:31;13.30;74.20
59505;DHT22;45321;53.200;5.814;2023-03-23T11:02:58;13.20;73.60
59505;DHT22;45321;53.200;5.814;2023-03-23T11:05:27;13.40;73.60
59505;DHT22;45321;53.200;5.814;2023-03-23T11:07:59;13.60;71.80
59505;DHT22;45321;53.200;5.814;2023-03-23T11:13:00;14.10;69.40
59505;DHT22;45321;53.200;5.814;2023-03-23T11:15:37;14.30;68.70
59505;DHT22;45321;53.200;5.814;2023-03-23T11:18:19;14.30;67.40
59505;DHT22;45321;53.200;5.814;2023-03-23T11:20:52;14.40;66.30
59505;DHT22;45321;53.200;5.814;2023-03-23T11:23:33;14.50;67.50
59505;DHT22;45321;53.200;5.814;2023-03-23T11:26:13;14.80;67.70
59505;DHT22;45321;53.200;5.814;2023-03-23T11:29:04;15.00;65.90
59505;DHT22;45321;53.200;5.814;2023-03-23T11:31:34;15.10;64.00
59505;DHT22;45321;53.200;5.814;2023-03-23T11:34:08;15.30;63.00
59505;DHT22;45321;53.200;5.814;2023-03-23T11:36:38;15.30;62.00
59505;DHT22;45321;53.200;5.814;2023-03-23T11:39:30;15.30;63.20
59505;DHT22;45321;53.200;5.814;2023-03-23T11:42:01;15.30;64.10
59505;DHT22;45321;53.200;5.814;2023-03-23T11:44:41;15.60;64.80
59505;DHT22;45321;53.200;5.814;2023-03-23T11:50:23;16.00;63.60
59505;DHT22;45321;53.200;5.814;2023-03-23T11:52:52;16.00;62.10
59505;DHT22;45321;53.200;5.814;2023-03-23T11:55:30;16.20;61.80
59505;DHT22;45321;53.200;5.814;2023-03-23T11:58:02;16.30;59.80
59505;DHT22;45321;53.200;5.814;2023-03-23T12:00:30;16.40;61.10
59505;DHT22;45321;53.200;5.814;2023-03-23T12:03:15;16.40;60.90
59505;DHT22;45321;53.200;5.814;2023-03-23T12:06:09;16.40;61.60
59505;DHT22;45321;53.200;5.814;2023-03-23T12:44:52;16.40;62.10
59505;DHT22;45321;53.200;5.814;2023-03-23T12:47:40;16.60;62.60
59505;DHT22;45321;53.200;5.814;2023-03-23T12:50:18;17.00;60.70
59505;DHT22;45321;53.200;5.814;2023-03-23T12:53:10;17.20;59.80
59505;DHT22;45321;53.200;5.814;2023-03-23T12:58:36;17.40;58.80
59505;DHT22;45321;53.200;5.814;2023-03-23T13:01:29;17.50;59.00
59505;DHT22;45321;53.200;5.814;2023-03-23T13:04:05;17.60;58.30
59505;DHT22;45321;53.200;5.814;2023-03-23T13:06:39;17.30;58.30
59505;DHT22;45321;53.200;5.814;2023-03-23T13:11:41;17.00;58.60
59505;DHT22;45321;53.200;5.814;2023-03-23T13:14:40;17.20;60.10
59505;DHT22;45321;53.200;5.814;2023-03-23T13:23:12;17.40;59.00
59505;DHT22;45321;53.200;5.814;2023-03-23T13:28:23;17.10;59.20
59505;DHT22;45321;53.200;5.814;2023-03-23T13:33:24;16.50;60.60
59505;DHT22;45321;53.200;5.814;2023-03-23T13:35:50;16.40;61.80
59505;DHT22;45321;53.200;5.814;2023-03-23T13:38:35;16.60;61.20
59505;DHT22;45321;53.200;5.814;2023-03-23T13:41:10;16.80;60.60
59505;DHT22;45321;53.200;5.814;2023-03-23T13:43:38;16.70;61.00
59505;DHT22;45321;53.200;5.814;2023-03-23T13:46:24;16.40;61.30
59505;DHT22;45321;53.200;5.814;2023-03-23T13:49:17;16.00;60.90
59505;DHT22;45321;53.200;5.814;2023-03-23T13:56:57;16.30;61.00
59505;DHT22;45321;53.200;5.814;2023-03-23T14:01:53;16.60;60.50
59505;DHT22;45321;53.200;5.814;2023-03-23T14:04:21;16.80;61.30
59505;DHT22;45321;53.200;5.814;2023-03-23T14:06:49;17.00;61.00
59505;DHT22;45321;53.200;5.814;2023-03-23T14:09:27;17.50;60.20
59505;DHT22;45321;53.200;5.814;2023-03-23T14:11:59;18.10;58.90
59505;DHT22;45321;53.200;5.814;2023-03-23T14:14:45;18.80;57.80
59505;DHT22;45321;53.200;5.814;2023-03-23T14:17:29;19.50;55.50
59505;DHT22;45321;53.200;5.814;2023-03-23T14:19:57;19.90;53.00
59505;DHT22;45321;53.200;5.814;2023-03-23T14:22:32;20.10;51.80
59505;DHT22;45321;53.200;5.814;2023-03-23T14:25:16;20.20;52.40
59505;DHT22;45321;53.200;5.814;2023-03-23T14:27:43;20.20;51.00
59505;DHT22;45321;53.200;5.814;2023-03-23T14:30:24;20.20;51.10
59505;DHT22;45321;53.200;5.814;2023-03-23T14:32:54;20.30;50.30
59505;DHT22;45321;53.200;5.814;2023-03-23T14:35:30;20.30;49.80
59505;DHT22;45321;53.200;5.814;2023-03-23T14:37:56;20.40;49.80
59505;DHT22;45321;53.200;5.814;2023-03-23T14:40:23;20.70;50.80
59505;DHT22;45321;53.200;5.814;2023-03-23T14:42:51;21.00;48.40
59505;DHT22;45321;53.200;5.814;2023-03-23T14:45:20;21.20;48.00
59505;DHT22;45321;53.200;5.814;2023-03-23T14:47:52;20.90;47.70
59505;DHT22;45321;53.200;5.814;2023-03-23T14:50:26;20.70;47.70
59505;DHT22;45321;53.200;5.814;2023-03-23T14:52:57;20.80;48.90
59505;DHT22;45321;53.200;5.814;2023-03-23T14:55:24;21.20;47.90
59505;DHT22;45321;53.200;5.814;2023-03-23T14:57:52;21.30;46.90
59505;DHT22;45321;53.200;5.814;2023-03-23T15:00:25;21.50;46.40
59505;DHT22;45321;53.200;5.814;2023-03-23T15:02:55;21.70;46.10
59505;DHT22;45321;53.200;5.814;2023-03-23T15:05:29;21.70;45.20
59505;DHT22;45321;53.200;5.814;2023-03-23T15:08:01;21.70;44.20
59505;DHT22;45321;53.200;5.814;2023-03-23T15:10:28;21.20;45.70
59505;DHT22;45321;53.200;5.814;2023-03-23T15:12:54;21.20;46.50
59505;DHT22;45321;53.200;5.814;2023-03-23T15:17:52;22.20;44.40
59505;DHT22;45321;53.200;5.814;2023-03-23T15:20:26;22.30;42.70
59505;DHT22;45321;53.200;5.814;2023-03-23T15:22:52;22.60;42.70
59505;DHT22;45321;53.200;5.814;2023-03-23T15:25:36;23.00;42.30
59505;DHT22;45321;53.200;5.814;2023-03-23T15:28:21;23.10;41.20
59505;DHT22;45321;53.200;5.814;2023-03-23T15:30:52;23.00;41.60
59505;DHT22;45321;53.200;5.814;2023-03-23T15:33:19;23.10;42.30
59505;DHT22;45321;53.200;5.814;2023-03-23T15:35:53;23.20;41.60
59505;DHT22;45321;53.200;5.814;2023-03-23T15:38:29;23.20;42.20
59505;DHT22;45321;53.200;5.814;2023-03-23T15:41:03;23.40;43.40
59505;DHT22;45321;53.200;5.814;2023-03-23T15:43:34;23.30;41.10
59505;DHT22;45321;53.200;5.814;2023-03-23T15:46:03;22.90;41.40
59505;DHT22;45321;53.200;5.814;2023-03-23T15:48:48;22.70;42.50
59505;DHT22;45321;53.200;5.814;2023-03-23T15:51:16;22.00;44.00
59505;DHT22;45321;53.200;5.814;2023-03-23T15:53:42;21.70;45.60
59505;DHT22;45321;53.200;5.814;2023-03-23T15:56:10;21.00;45.90
59505;DHT22;45321;53.200;5.814;2023-03-23T15:58:36;20.00;47.60
59505;DHT22;45321;53.200;5.814;2023-03-23T16:04:16;18.70;51.70
59505;DHT22;45321;53.200;5.814;2023-03-23T16:06:34;18.40;51.70
59505;DHT22;45321;53.200;5.814;2023-03-23T16:09:00;17.80;53.40
59505;DHT22;45321;53.200;5.814;2023-03-23T16:11:28;17.30;55.00
59505;DHT22;45321;53.200;5.814;2023-03-23T16:13:56;17.00;56.40
59505;DHT22;45321;53.200;5.814;2023-03-23T16:16:33;16.70;57.20
59505;DHT22;45321;53.200;5.814;2023-03-23T16:19:00;16.50;58.10
59505;DHT22;45321;53.200;5.814;2023-03-23T16:21:26;16.30;58.90
59505;DHT22;45321;53.200;5.814;2023-03-23T16:23:52;16.20;59.80
59505;DHT22;45321;53.200;5.814;2023-03-23T16:26:18;16.30;60.20
59505;DHT22;45321;53.200;5.814;2023-03-23T16:28:44;16.70;59.80
59505;DHT22;45321;53.200;5.814;2023-03-23T16:31:10;16.80;59.00
59505;DHT22;45321;53.200;5.814;2023-03-23T16:33:36;16.60;59.40
59505;DHT22;45321;53.200;5.814;2023-03-23T16:36:03;16.30;60.00
59505;DHT22;45321;53.200;5.814;2023-03-23T16:38:28;16.20;60.70
59505;DHT22;45321;53.200;5.814;2023-03-23T16:40:54;16.20;61.20
59505;DHT22;45321;53.200;5.814;2023-03-23T16:43:20;16.00;61.40
59505;DHT22;45321;53.200;5.814;2023-03-23T16:45:46;15.90;61.90
59505;DHT22;45321;53.200;5.814;2023-03-23T16:48:14;15.80;62.10
59505;DHT22;45321;53.200;5.814;2023-03-23T16:50:41;15.70;62.60
59505;DHT22;45321;53.200;5.814;2023-03-23T16:53:08;15.70;62.90
59505;DHT22;45321;53.200;5.814;2023-03-23T16:55:35;15.50;63.20
59505;DHT22;45321;53.200;5.814;2023-03-23T16:58:02;15.50;63.70
59505;DHT22;45321;53.200;5.814;2023-03-23T17:00:28;15.30;63.90
59505;DHT22;45321;53.200;5.814;2023-03-23T17:02:55;15.30;64.20
59505;DHT22;45321;53.200;5.814;2023-03-23T17:05:24;15.30;64.50
59505;DHT22;45321;53.200;5.814;2023-03-23T17:07:50;15.20;64.80
59505;DHT22;45321;53.200;5.814;2023-03-23T17:10:17;15.10;65.10
59505;DHT22;45321;53.200;5.814;2023-03-23T17:12:43;15.00;65.50
59505;DHT22;45321;53.200;5.814;2023-03-23T17:15:09;14.90;65.90
59505;DHT22;45321;53.200;5.814;2023-03-23T17:17:36;14.80;66.30
59505;DHT22;45321;53.200;5.814;2023-03-23T17:20:05;14.80;66.50
59505;DHT22;45321;53.200;5.814;2023-03-23T17:22:32;14.70;66.80
59505;DHT22;45321;53.200;5.814;2023-03-23T17:24:57;14.70;67.10
59505;DHT22;45321;53.200;5.814;2023-03-23T17:27:23;14.60;67.20
59505;DHT22;45321;53.200;5.814;2023-03-23T17:29:50;14.60;67.40
59505;DHT22;45321;53.200;5.814;2023-03-23T17:32:16;14.60;67.70
59505;DHT22;45321;53.200;5.814;2023-03-23T17:34:43;14.40;67.90
59505;DHT22;45321;53.200;5.814;2023-03-23T17:37:09;14.40;68.30
59505;DHT22;45321;53.200;5.814;2023-03-23T17:39:35;14.30;68.60
59505;DHT22;45321;53.200;5.814;2023-03-23T17:42:01;14.30;68.80
59505;DHT22;45321;53.200;5.814;2023-03-23T17:44:28;14.20;68.90
59505;DHT22;45321;53.200;5.814;2023-03-23T17:46:54;14.20;69.00
59505;DHT22;45321;53.200;5.814;2023-03-23T17:49:21;14.10;69.40
59505;DHT22;45321;53.200;5.814;2023-03-23T17:51:48;14.10;69.40